Winchester Bay, Oregon
Current Conditions -  °F | °C
As of 12:55 PM on Sunday 23 Nov 2014 (Local Time) from KOTH Reporting Station
Clear Clear  
Wind Chill: 57°   Ceiling: Unl
Heat Index: 57°   Visibility: 10mi
Dew Point: 52°   Wind: 6mph
Humidity: 82%   Direction: 200°SSW
Pressure: 30.36"   Gusts: NA
Location:  43.8192°N, 123.875°W
Report Text: KOTH 232055Z 20005KT 10SM CLR 14/11 A3036 RMK AO1 57010
Loading
Personal Weather Stations






























Interactive Weather Map New forecast layout! Learn more

10-Day Weather Forecast

Advertisements
Track Severe Weather on mobile